Time;durP1;ratioP1;P1;durP2;ratioP2;P2;SDS_P1;SDS_P2;PMS_P1;PMS_P2;Temp;Humidity;BMP_temperature;BMP_pressure;BME280_temperature;BME280_humidity;BME280_pressure;Samples;Min_cycle;Max_cycle;Signal;HPM_P1;HPM_P2
2023/04/06 00:09:22;;;;;;;6.55;2.75;;;6.50;1.00;;;;;;20716983;28;20034;-42
2023/04/06 00:19:23;;;;;;;9.30;4.13;;;6.50;1.00;;;;;;20715683;28;20052;-43
2023/04/06 00:29:24;;;;;;;7.25;4.25;;;6.40;1.00;;;;;;20729069;28;20044;-42
2023/04/06 00:39:25;;;;;;;12.57;4.30;;;6.40;1.00;;;;;;20800751;28;20041;-42
2023/04/06 00:49:26;;;;;;;8.88;4.93;;;6.30;1.00;;;;;;20739966;28;20044;-43
2023/04/06 00:59:28;;;;;;;11.85;4.25;;;6.30;1.00;;;;;;20715503;28;20046;-42
2023/04/06 01:09:30;;;;;;;8.07;4.22;;;6.20;1.00;;;;;;20721070;28;20437;-42
2023/04/06 01:19:31;;;;;;;5.18;2.72;;;6.30;1.00;;;;;;20750287;28;20048;-43
2023/04/06 01:29:32;;;;;;;6.53;2.80;;;6.30;1.00;;;;;;20790942;28;20077;-43
2023/04/06 01:39:33;;;;;;;5.82;3.13;;;6.30;1.00;;;;;;20812264;28;20041;-42
2023/04/06 01:49:34;;;;;;;6.50;2.80;;;6.40;1.00;;;;;;20807352;28;20098;-42
2023/04/06 01:59:35;;;;;;;6.10;3.17;;;6.40;1.00;;;;;;20790952;28;20052;-42
2023/04/06 02:09:36;;;;;;;6.18;2.25;;;6.40;1.00;;;;;;20802006;28;20060;-43
2023/04/06 02:19:37;;;;;;;6.25;3.15;;;6.40;1.00;;;;;;20796489;28;20044;-42
2023/04/06 02:29:38;;;;;;;4.93;2.28;;;6.50;1.00;;;;;;20799494;28;20496;-42
2023/04/06 02:39:40;;;;;;;6.43;3.40;;;6.50;1.00;;;;;;20761726;28;20045;-42
2023/04/06 02:49:41;;;;;;;5.38;2.85;;;6.40;1.00;;;;;;20772521;28;20330;-42
2023/04/06 02:59:42;;;;;;;5.03;2.63;;;6.30;1.00;;;;;;20718862;28;20044;-43
2023/04/06 03:09:43;;;;;;;9.10;3.40;;;6.30;1.00;;;;;;20755781;28;20060;-43
2023/04/06 03:19:44;;;;;;;9.98;4.20;;;6.20;1.00;;;;;;20797699;28;20044;-42
2023/04/06 03:29:45;;;;;;;8.38;4.00;;;6.10;1.00;;;;;;20797361;28;20110;-43
2023/04/06 03:39:46;;;;;;;7.20;2.90;;;6.00;1.00;;;;;;20729433;28;20041;-43
2023/04/06 03:49:47;;;;;;;7.20;3.33;;;6.10;1.00;;;;;;20721698;28;20086;-42
2023/04/06 03:59:48;;;;;;;8.77;4.30;;;6.10;1.00;;;;;;20710488;28;20044;-42
2023/04/06 04:09:49;;;;;;;8.63;4.00;;;6.20;1.00;;;;;;20752982;28;20048;-43
2023/04/06 04:19:51;;;;;;;6.75;4.43;;;6.30;1.00;;;;;;20770786;28;20465;-42
2023/04/06 04:30:12;;;;;;;8.10;3.60;;;6.30;1.00;;;;;;20765028;28;20199;-42
2023/04/06 04:40:33;;;;;;;9.93;3.60;;;6.30;1.00;;;;;;20762270;28;20231;-43
2023/04/06 04:50:55;;;;;;;7.40;4.35;;;6.30;1.00;;;;;;20780135;28;20132;-43
2023/04/06 05:01:16;;;;;;;8.50;3.80;;;6.40;1.00;;;;;;20785083;28;20115;-42
2023/04/06 05:11:37;;;;;;;9.80;4.90;;;6.40;1.00;;;;;;20782318;28;20126;-43
2023/04/06 05:21:58;;;;;;;11.55;6.53;;;6.40;1.00;;;;;;20793520;28;20069;-42
2023/04/06 05:32:21;;;;;;;10.98;5.45;;;6.30;1.00;;;;;;20792817;28;20684;-43
2023/04/06 05:42:42;;;;;;;11.07;4.47;;;6.30;1.00;;;;;;20794650;28;20049;-43
2023/04/06 05:53:03;;;;;;;9.40;4.35;;;6.20;1.00;;;;;;20794901;28;20712;-42
2023/04/06 06:03:24;;;;;;;9.02;4.82;;;6.40;1.00;;;;;;20792528;28;20030;-42
2023/04/06 06:13:45;;;;;;;11.82;4.43;;;6.60;1.00;;;;;;20792082;28;20087;-43
2023/04/06 06:24:07;;;;;;;7.35;5.25;;;6.80;1.00;;;;;;20791304;28;20532;-43
2023/04/06 06:34:28;;;;;;;9.23;5.57;;;7.00;1.00;;;;;;20795584;28;20033;-42
2023/04/06 06:44:49;;;;;;;7.30;5.07;;;7.00;1.00;;;;;;20790873;28;20447;-42
2023/04/06 06:55:11;;;;;;;10.35;4.88;;;7.00;1.00;;;;;;20789575;28;20473;-42
2023/04/06 07:05:32;;;;;;;5.55;3.28;;;7.00;1.00;;;;;;20775163;28;20107;-42
2023/04/06 07:15:53;;;;;;;10.35;6.15;;;7.00;1.00;;;;;;20765737;28;20095;-42
2023/04/06 07:26:14;;;;;;;12.95;5.15;;;7.00;1.00;;;;;;20777405;28;20270;-42
2023/04/06 07:36:35;;;;;;;7.25;4.82;;;7.20;1.00;;;;;;20775627;28;20057;-42
2023/04/06 07:46:56;;;;;;;12.70;5.97;;;7.40;1.00;;;;;;20754813;28;20076;-42
2023/04/06 07:56:57;;;;;;;7.10;4.60;;;7.60;1.00;;;;;;20760750;28;20041;-42
2023/04/06 08:06:58;;;;;;;15.95;7.70;;;8.00;1.00;;;;;;20728009;28;20038;-42
2023/04/06 08:16:59;;;;;;;14.85;6.07;;;8.20;1.00;;;;;;20754287;28;20045;-43
2023/04/06 08:27:00;;;;;;;10.98;6.13;;;8.40;1.00;;;;;;20700260;28;20049;-42
2023/04/06 08:37:02;;;;;;;13.98;6.65;;;8.50;1.00;;;;;;20757089;28;20199;-43
2023/04/06 08:47:04;;;;;;;11.48;5.22;;;8.50;1.00;;;;;;20752771;28;20756;-43
2023/04/06 08:57:07;;;;;;;11.10;7.03;;;8.60;1.00;;;;;;20743119;28;20509;-42
2023/04/06 09:07:08;;;;;;;9.07;5.43;;;8.50;1.00;;;;;;20764943;28;20228;-42
2023/04/06 09:17:20;;;;;;;12.48;6.72;;;8.40;1.00;;;;;;20766873;28;20045;-42
2023/04/06 09:27:33;;;;;;;13.23;6.40;;;8.60;1.00;;;;;;20747156;28;20689;-42
2023/04/06 09:37:35;;;;;;;15.80;8.57;;;8.50;1.00;;;;;;20746346;28;20045;-42
2023/04/06 09:47:36;;;;;;;13.10;7.60;;;8.40;1.00;;;;;;20742348;28;20457;-42
2023/04/06 09:57:50;;;;;;;12.50;7.50;;;8.50;1.00;;;;;;20755106;28;20037;-43
2023/04/06 10:07:55;;;;;;;15.88;6.47;;;8.50;1.00;;;;;;20806943;28;20804;-42
2023/04/06 10:18:00;;;;;;;7.93;4.60;;;8.60;1.00;;;;;;20814685;28;20045;-42
2023/04/06 10:28:08;;;;;;;8.65;4.60;;;8.60;1.00;;;;;;20822678;28;20041;-42
2023/04/06 10:38:11;;;;;;;8.23;3.97;;;8.80;1.00;;;;;;20741048;28;20464;-42
2023/04/06 10:48:16;;;;;;;8.73;4.00;;;8.70;1.00;;;;;;20751558;28;20041;-42
2023/04/06 10:58:18;;;;;;;5.60;2.55;;;8.70;1.00;;;;;;20740288;28;20127;-41
2023/04/06 11:08:30;;;;;;;6.68;3.65;;;8.70;1.00;;;;;;20741489;28;20418;-42
2023/04/06 11:18:31;;;;;;;5.80;3.05;;;8.70;1.00;;;;;;20732291;28;20582;-41
2023/04/06 11:28:32;;;;;;;7.95;4.10;;;8.70;1.00;;;;;;20717789;28;21009;-41
2023/04/06 11:38:33;;;;;;;2.55;1.67;;;8.40;1.00;;;;;;20724428;28;20417;-41
2023/04/06 11:48:44;;;;;;;6.20;3.05;;;8.40;8.40;;;;;;20749389;28;20029;-42
2023/04/06 11:58:45;;;;;;;7.00;2.75;;;8.40;14.40;;;;;;20728487;28;20292;-41
2023/04/06 12:08:46;;;;;;;5.07;2.72;;;8.20;16.80;;;;;;20743766;28;20044;-41
2023/04/06 12:18:48;;;;;;;6.43;3.65;;;8.20;32.90;;;;;;20730287;28;20034;-41
2023/04/06 12:28:49;;;;;;;7.18;3.63;;;8.20;39.70;;;;;;20772101;28;20041;-41
2023/04/06 12:38:51;;;;;;;4.28;2.55;;;8.10;43.70;;;;;;20739157;28;20100;-41
2023/04/06 12:48:53;;;;;;;7.45;4.53;;;8.20;73.90;;;;;;20725005;28;20100;-41
2023/04/06 12:58:55;;;;;;;8.07;4.70;;;8.10;99.00;;;;;;20715500;28;20061;-42
2023/04/06 13:08:56;;;;;;;7.43;4.43;;;8.10;99.90;;;;;;20738876;28;20057;-41
2023/04/06 13:18:57;;;;;;;6.03;3.78;;;8.10;99.90;;;;;;20774942;28;20127;-42
2023/04/06 13:29:00;;;;;;;10.38;4.88;;;8.10;99.90;;;;;;20807821;28;20124;-42
2023/04/06 13:39:01;;;;;;;11.98;5.65;;;8.10;99.90;;;;;;20796946;28;20073;-42
2023/04/06 13:49:02;;;;;;;12.18;5.60;;;8.20;99.90;;;;;;20771525;28;20461;-42
2023/04/06 13:59:03;;;;;;;11.55;5.60;;;8.10;99.90;;;;;;20755520;28;20392;-41
2023/04/06 14:09:04;;;;;;;8.93;5.40;;;8.10;99.90;;;;;;20804736;28;20099;-41
2023/04/06 14:19:05;;;;;;;10.05;5.25;;;8.00;99.90;;;;;;20809822;28;20077;-41
2023/04/06 14:29:06;;;;;;;7.80;4.38;;;8.00;99.90;;;;;;20815387;28;20094;-41
2023/04/06 14:39:09;;;;;;;7.05;4.85;;;8.00;99.90;;;;;;20744882;28;20033;-42
2023/04/06 14:49:10;;;;;;;6.53;4.93;;;7.90;99.90;;;;;;20736483;28;20530;-41
2023/04/06 14:59:11;;;;;;;11.68;5.18;;;7.80;99.90;;;;;;20781635;28;20166;-41
2023/04/06 15:09:13;;;;;;;9.32;4.97;;;7.90;99.90;;;;;;20737912;28;20056;-40
2023/04/06 15:19:14;;;;;;;7.85;3.88;;;7.70;99.90;;;;;;20795813;28;20465;-41
2023/04/06 15:29:15;;;;;;;6.30;3.85;;;7.80;99.90;;;;;;20749962;28;20082;-41
2023/04/06 15:39:16;;;;;;;9.32;4.70;;;7.80;99.90;;;;;;20738300;28;20592;-41
2023/04/06 15:49:17;;;;;;;9.18;4.28;;;7.80;99.90;;;;;;20795555;28;20354;-42
2023/04/06 15:59:18;;;;;;;15.73;6.50;;;7.80;99.90;;;;;;20791815;28;20080;-41
2023/04/06 16:09:19;;;;;;;7.07;4.10;;;7.80;99.90;;;;;;20798902;28;20037;-41
2023/04/06 16:19:20;;;;;;;7.82;4.55;;;7.80;99.90;;;;;;20777627;28;20069;-40
2023/04/06 16:29:21;;;;;;;10.45;5.68;;;7.80;99.90;;;;;;20735008;28;20054;-40
2023/04/06 16:39:22;;;;;;;9.80;4.70;;;7.80;99.90;;;;;;20753834;28;20452;-40
2023/04/06 16:49:23;;;;;;;10.77;5.90;;;7.90;99.90;;;;;;20741620;28;20402;-41
2023/04/06 16:59:24;;;;;;;12.48;6.15;;;7.90;99.90;;;;;;20745838;28;20484;-41
2023/04/06 17:09:25;;;;;;;12.18;5.63;;;8.00;99.90;;;;;;20727241;28;20046;-40
2023/04/06 17:19:26;;;;;;;8.27;5.05;;;8.00;99.90;;;;;;20763450;28;21650;-40
2023/04/06 17:29:29;;;;;;;7.57;5.43;;;8.00;99.90;;;;;;20753452;28;20037;-40
2023/04/06 17:39:30;;;;;;;10.25;5.55;;;8.00;99.90;;;;;;20725596;28;20068;-40
2023/04/06 17:49:31;;;;;;;9.77;5.18;;;8.10;99.90;;;;;;20733121;28;20073;-40
2023/04/06 17:59:32;;;;;;;8.13;4.90;;;8.00;99.90;;;;;;20737906;28;20097;-40
2023/04/06 18:09:33;;;;;;;9.55;6.25;;;8.10;99.90;;;;;;20718333;28;20523;-40
2023/04/06 18:19:34;;;;;;;15.50;7.80;;;8.10;99.90;;;;;;20714480;28;20034;-40
2023/04/06 18:29:35;;;;;;;12.10;6.32;;;8.10;99.90;;;;;;20712568;28;20535;-40
2023/04/06 18:39:36;;;;;;;7.82;4.72;;;8.20;99.90;;;;;;20737088;28;20144;-41
2023/04/06 18:49:37;;;;;;;11.48;6.38;;;8.30;99.90;;;;;;20715390;28;20099;-40
2023/04/06 18:59:38;;;;;;;12.40;6.88;;;8.20;99.90;;;;;;20702370;28;20449;-40
2023/04/06 19:09:39;;;;;;;9.43;6.32;;;8.30;99.90;;;;;;20729177;28;20417;-41
2023/04/06 19:19:40;;;;;;;12.38;7.15;;;8.30;99.90;;;;;;20719021;28;20108;-41
2023/04/06 19:29:41;;;;;;;11.32;6.60;;;8.40;99.90;;;;;;20742108;28;20389;-41
2023/04/06 19:39:43;;;;;;;11.77;6.75;;;8.40;99.90;;;;;;20723987;28;20049;-41
2023/04/06 19:49:44;;;;;;;17.65;8.13;;;8.40;99.90;;;;;;20739305;28;20049;-41
2023/04/06 19:59:45;;;;;;;12.55;8.30;;;8.40;99.90;;;;;;20763967;28;20498;-41
2023/04/06 20:09:46;;;;;;;13.23;7.95;;;8.60;99.90;;;;;;20726080;28;20430;-41
2023/04/06 20:19:48;;;;;;;15.65;9.35;;;8.70;99.90;;;;;;20715809;28;20520;-41
2023/04/06 20:29:49;;;;;;;12.57;6.85;;;8.70;99.90;;;;;;20731344;28;21837;-41
2023/04/06 20:39:51;;;;;;;9.85;6.20;;;8.70;99.90;;;;;;20714509;28;20044;-41
2023/04/06 20:49:52;;;;;;;14.27;8.50;;;8.80;99.90;;;;;;20726268;28;20182;-41
2023/04/06 20:59:54;;;;;;;11.32;7.43;;;8.80;99.90;;;;;;20720204;28;20135;-41
2023/04/06 21:09:55;;;;;;;10.98;6.38;;;8.80;99.90;;;;;;20728947;28;20141;-41
2023/04/06 21:19:56;;;;;;;8.25;3.80;;;9.00;99.90;;;;;;20708668;28;20512;-41
2023/04/06 21:29:57;;;;;;;22.90;4.70;;;9.00;99.90;;;;;;20794232;28;20657;-41
2023/04/06 21:40:00;;;;;;;5.18;2.40;;;9.10;99.90;;;;;;20744197;28;20509;-41
2023/04/06 21:50:02;;;;;;;5.72;2.13;;;9.10;99.90;;;;;;20808059;28;20050;-41
2023/04/06 22:00:08;;;;;;;5.97;2.38;;;9.10;99.90;;;;;;20761863;28;20072;-41
2023/04/06 22:10:09;;;;;;;4.43;2.63;;;8.90;99.90;;;;;;20736561;28;20049;-41
2023/04/06 22:20:10;;;;;;;4.93;1.73;;;8.90;99.90;;;;;;20736880;28;20067;-41
2023/04/06 22:30:11;;;;;;;3.70;1.40;;;8.90;99.90;;;;;;20732146;28;20183;-41
2023/04/06 22:40:13;;;;;;;6.88;2.35;;;8.80;99.90;;;;;;20738833;28;20099;-41
2023/04/06 22:50:14;;;;;;;5.35;2.35;;;8.80;99.90;;;;;;20730671;28;20034;-41
2023/04/06 23:00:16;;;;;;;4.57;1.30;;;8.70;99.90;;;;;;20745564;28;20087;-41
2023/04/06 23:10:18;;;;;;;3.92;1.58;;;8.70;99.90;;;;;;20791259;28;20520;-41
2023/04/06 23:20:20;;;;;;;4.82;1.63;;;8.60;99.90;;;;;;20779075;28;20832;-41
2023/04/06 23:30:21;;;;;;;4.10;1.42;;;8.60;99.90;;;;;;20751723;28;20041;-41
2023/04/06 23:40:23;;;;;;;3.22;1.45;;;8.60;99.90;;;;;;20748846;28;20386;-41
2023/04/06 23:50:24;;;;;;;8.57;1.58;;;8.50;99.90;;;;;;20786427;28;20049;-41
